sensor_id;sensor_type;location;lat;lon;timestamp;P1;durP1;ratioP1;P2;durP2;ratioP2
11082;SDS011;5595;50.186;8.468;2023-11-21T00:01:26;1.57;;;1.40;;
11082;SDS011;5595;50.186;8.468;2023-11-21T00:03:53;1.70;;;1.30;;
11082;SDS011;5595;50.186;8.468;2023-11-21T00:06:20;1.20;;;1.00;;
11082;SDS011;5595;50.186;8.468;2023-11-21T00:08:47;1.23;;;0.97;;
11082;SDS011;5595;50.186;8.468;2023-11-21T00:11:14;2.10;;;1.30;;
11082;SDS011;5595;50.186;8.468;2023-11-21T00:13:41;2.00;;;1.43;;
11082;SDS011;5595;50.186;8.468;2023-11-21T00:16:08;2.30;;;1.20;;
11082;SDS011;5595;50.186;8.468;2023-11-21T00:18:35;1.10;;;1.00;;
11082;SDS011;5595;50.186;8.468;2023-11-21T00:21:02;2.07;;;1.10;;
11082;SDS011;5595;50.186;8.468;2023-11-21T00:23:29;1.43;;;1.10;;
11082;SDS011;5595;50.186;8.468;2023-11-21T00:25:57;0.90;;;0.90;;
11082;SDS011;5595;50.186;8.468;2023-11-21T00:28:24;1.20;;;1.10;;
11082;SDS011;5595;50.186;8.468;2023-11-21T00:30:52;1.27;;;0.90;;
11082;SDS011;5595;50.186;8.468;2023-11-21T00:33:18;1.20;;;0.80;;
11082;SDS011;5595;50.186;8.468;2023-11-21T00:35:45;0.80;;;0.80;;
11082;SDS011;5595;50.186;8.468;2023-11-21T00:38:12;1.00;;;0.90;;
11082;SDS011;5595;50.186;8.468;2023-11-21T00:40:39;0.77;;;0.77;;
11082;SDS011;5595;50.186;8.468;2023-11-21T00:43:07;1.17;;;0.60;;
11082;SDS011;5595;50.186;8.468;2023-11-21T00:45:34;0.87;;;0.67;;
11082;SDS011;5595;50.186;8.468;2023-11-21T00:48:01;0.80;;;0.77;;
11082;SDS011;5595;50.186;8.468;2023-11-21T00:50:29;0.67;;;0.63;;
11082;SDS011;5595;50.186;8.468;2023-11-21T00:52:56;0.50;;;0.50;;
11082;SDS011;5595;50.186;8.468;2023-11-21T00:55:23;0.40;;;0.40;;
11082;SDS011;5595;50.186;8.468;2023-11-21T00:57:51;1.37;;;0.83;;
11082;SDS011;5595;50.186;8.468;2023-11-21T01:00:19;0.93;;;0.70;;
11082;SDS011;5595;50.186;8.468;2023-11-21T01:02:46;1.63;;;0.53;;
11082;SDS011;5595;50.186;8.468;2023-11-21T01:05:22;0.57;;;0.40;;
11082;SDS011;5595;50.186;8.468;2023-11-21T01:10:59;0.30;;;0.30;;
11082;SDS011;5595;50.186;8.468;2023-11-21T01:16:33;1.07;;;0.23;;
11082;SDS011;5595;50.186;8.468;2023-11-21T01:19:01;0.40;;;0.40;;
11082;SDS011;5595;50.186;8.468;2023-11-21T01:21:29;1.33;;;0.40;;
11082;SDS011;5595;50.186;8.468;2023-11-21T01:23:56;0.30;;;0.30;;
11082;SDS011;5595;50.186;8.468;2023-11-21T05:36:33;1.70;;;1.10;;
11082;SDS011;5595;50.186;8.468;2023-11-21T05:39:02;1.77;;;1.40;;
11082;SDS011;5595;50.186;8.468;2023-11-21T05:41:29;1.30;;;1.10;;
11082;SDS011;5595;50.186;8.468;2023-11-21T05:43:56;3.37;;;0.57;;
11082;SDS011;5595;50.186;8.468;2023-11-21T05:46:23;0.80;;;0.50;;
11082;SDS011;5595;50.186;8.468;2023-11-21T05:48:50;0.50;;;0.50;;
11082;SDS011;5595;50.186;8.468;2023-11-21T05:51:18;3.30;;;0.83;;
11082;SDS011;5595;50.186;8.468;2023-11-21T05:53:46;1.37;;;1.00;;
11082;SDS011;5595;50.186;8.468;2023-11-21T05:56:13;0.90;;;0.83;;
11082;SDS011;5595;50.186;8.468;2023-11-21T05:58:40;1.20;;;1.00;;
11082;SDS011;5595;50.186;8.468;2023-11-21T06:01:07;1.53;;;0.90;;
11082;SDS011;5595;50.186;8.468;2023-11-21T06:03:34;2.07;;;0.67;;
11082;SDS011;5595;50.186;8.468;2023-11-21T06:06:01;1.07;;;0.67;;
11082;SDS011;5595;50.186;8.468;2023-11-21T06:08:29;0.57;;;0.57;;
11082;SDS011;5595;50.186;8.468;2023-11-21T06:10:57;0.87;;;0.43;;
11082;SDS011;5595;50.186;8.468;2023-11-21T06:13:24;0.57;;;0.30;;
11082;SDS011;5595;50.186;8.468;2023-11-21T06:15:51;0.60;;;0.40;;
11082;SDS011;5595;50.186;8.468;2023-11-21T06:18:18;0.30;;;0.30;;
11082;SDS011;5595;50.186;8.468;2023-11-21T06:20:45;0.17;;;0.17;;
11082;SDS011;5595;50.186;8.468;2023-11-21T06:23:12;0.40;;;0.30;;
11082;SDS011;5595;50.186;8.468;2023-11-21T06:25:39;0.30;;;0.30;;
11082;SDS011;5595;50.186;8.468;2023-11-21T06:28:08;0.20;;;0.20;;
11082;SDS011;5595;50.186;8.468;2023-11-21T06:30:35;0.33;;;0.33;;
11082;SDS011;5595;50.186;8.468;2023-11-21T06:33:02;0.67;;;0.30;;
11082;SDS011;5595;50.186;8.468;2023-11-21T06:35:29;0.67;;;0.30;;
11082;SDS011;5595;50.186;8.468;2023-11-21T06:37:58;2.50;;;0.30;;
11082;SDS011;5595;50.186;8.468;2023-11-21T06:40:25;0.43;;;0.30;;
11082;SDS011;5595;50.186;8.468;2023-11-21T06:42:52;0.20;;;0.20;;
11082;SDS011;5595;50.186;8.468;2023-11-21T06:45:20;0.70;;;0.40;;
11082;SDS011;5595;50.186;8.468;2023-11-21T06:47:48;1.07;;;0.20;;
11082;SDS011;5595;50.186;8.468;2023-11-21T06:50:14;0.20;;;0.20;;
11082;SDS011;5595;50.186;8.468;2023-11-21T06:52:41;0.83;;;0.30;;
11082;SDS011;5595;50.186;8.468;2023-11-21T06:55:09;0.30;;;0.30;;
11082;SDS011;5595;50.186;8.468;2023-11-21T06:57:36;0.30;;;0.30;;
11082;SDS011;5595;50.186;8.468;2023-11-21T07:00:03;0.63;;;0.40;;
11082;SDS011;5595;50.186;8.468;2023-11-21T07:02:35;0.40;;;0.20;;
11082;SDS011;5595;50.186;8.468;2023-11-21T07:05:02;1.83;;;0.20;;
11082;SDS011;5595;50.186;8.468;2023-11-21T07:07:29;0.47;;;0.30;;
11082;SDS011;5595;50.186;8.468;2023-11-21T07:09:56;0.40;;;0.37;;
11082;SDS011;5595;50.186;8.468;2023-11-21T07:12:28;0.57;;;0.30;;
11082;SDS011;5595;50.186;8.468;2023-11-21T07:14:55;1.83;;;0.30;;
11082;SDS011;5595;50.186;8.468;2023-11-21T07:17:22;0.30;;;0.30;;
11082;SDS011;5595;50.186;8.468;2023-11-21T07:19:50;0.40;;;0.20;;
11082;SDS011;5595;50.186;8.468;2023-11-21T07:22:17;2.70;;;0.50;;
11082;SDS011;5595;50.186;8.468;2023-11-21T07:24:47;0.53;;;0.40;;
11082;SDS011;5595;50.186;8.468;2023-11-21T07:27:14;0.40;;;0.23;;
11082;SDS011;5595;50.186;8.468;2023-11-21T07:29:41;0.57;;;0.37;;
11082;SDS011;5595;50.186;8.468;2023-11-21T07:32:08;1.83;;;0.63;;
11082;SDS011;5595;50.186;8.468;2023-11-21T07:34:35;1.27;;;0.57;;
11082;SDS011;5595;50.186;8.468;2023-11-21T07:37:04;2.83;;;0.80;;
11082;SDS011;5595;50.186;8.468;2023-11-21T07:39:30;1.53;;;0.50;;
11082;SDS011;5595;50.186;8.468;2023-11-21T07:41:57;0.70;;;0.50;;
11082;SDS011;5595;50.186;8.468;2023-11-21T07:44:24;2.17;;;0.57;;
11082;SDS011;5595;50.186;8.468;2023-11-21T07:46:51;1.83;;;0.37;;
11082;SDS011;5595;50.186;8.468;2023-11-21T07:49:22;1.70;;;0.53;;
11082;SDS011;5595;50.186;8.468;2023-11-21T07:51:49;0.87;;;0.50;;
11082;SDS011;5595;50.186;8.468;2023-11-21T07:54:17;1.90;;;0.80;;
11082;SDS011;5595;50.186;8.468;2023-11-21T07:56:44;1.00;;;0.50;;
11082;SDS011;5595;50.186;8.468;2023-11-21T07:59:11;0.40;;;0.40;;
11082;SDS011;5595;50.186;8.468;2023-11-21T08:01:39;2.77;;;0.67;;
11082;SDS011;5595;50.186;8.468;2023-11-21T08:04:08;0.57;;;0.47;;
11082;SDS011;5595;50.186;8.468;2023-11-21T08:06:35;1.37;;;0.50;;
11082;SDS011;5595;50.186;8.468;2023-11-21T08:09:01;1.00;;;0.50;;
11082;SDS011;5595;50.186;8.468;2023-11-21T08:11:30;2.07;;;0.43;;
11082;SDS011;5595;50.186;8.468;2023-11-21T08:13:58;1.07;;;0.50;;
11082;SDS011;5595;50.186;8.468;2023-11-21T08:16:25;1.27;;;0.63;;
11082;SDS011;5595;50.186;8.468;2023-11-21T08:18:52;3.47;;;0.80;;
11082;SDS011;5595;50.186;8.468;2023-11-21T08:21:19;0.50;;;0.50;;
11082;SDS011;5595;50.186;8.468;2023-11-21T08:23:46;1.47;;;0.70;;
11082;SDS011;5595;50.186;8.468;2023-11-21T08:26:18;3.03;;;0.73;;
11082;SDS011;5595;50.186;8.468;2023-11-21T08:28:46;2.63;;;0.77;;
11082;SDS011;5595;50.186;8.468;2023-11-21T08:31:13;2.43;;;0.67;;
11082;SDS011;5595;50.186;8.468;2023-11-21T08:33:40;1.40;;;0.53;;
11082;SDS011;5595;50.186;8.468;2023-11-21T08:36:07;0.97;;;0.60;;
11082;SDS011;5595;50.186;8.468;2023-11-21T08:38:36;2.37;;;0.80;;
11082;SDS011;5595;50.186;8.468;2023-11-21T08:41:04;0.83;;;0.63;;
11082;SDS011;5595;50.186;8.468;2023-11-21T08:43:33;4.00;;;0.90;;
11082;SDS011;5595;50.186;8.468;2023-11-21T08:46:02;1.03;;;0.60;;
11082;SDS011;5595;50.186;8.468;2023-11-21T08:48:29;1.23;;;0.80;;
11082;SDS011;5595;50.186;8.468;2023-11-21T08:50:56;2.57;;;0.60;;
11082;SDS011;5595;50.186;8.468;2023-11-21T08:53:23;2.37;;;0.80;;
11082;SDS011;5595;50.186;8.468;2023-11-21T08:55:51;1.77;;;0.50;;
11082;SDS011;5595;50.186;8.468;2023-11-21T08:58:19;1.90;;;0.80;;
11082;SDS011;5595;50.186;8.468;2023-11-21T09:00:46;3.80;;;0.70;;
11082;SDS011;5595;50.186;8.468;2023-11-21T09:03:14;1.07;;;0.67;;
11082;SDS011;5595;50.186;8.468;2023-11-21T09:05:41;1.87;;;0.90;;
11082;SDS011;5595;50.186;8.468;2023-11-21T09:08:09;1.03;;;0.70;;
11082;SDS011;5595;50.186;8.468;2023-11-21T09:10:36;1.47;;;0.70;;
11082;SDS011;5595;50.186;8.468;2023-11-21T09:13:04;3.30;;;0.70;;
11082;SDS011;5595;50.186;8.468;2023-11-21T09:15:35;3.47;;;0.70;;
11082;SDS011;5595;50.186;8.468;2023-11-21T09:18:02;2.73;;;0.90;;
11082;SDS011;5595;50.186;8.468;2023-11-21T09:20:31;0.87;;;0.80;;
11082;SDS011;5595;50.186;8.468;2023-11-21T09:22:58;5.07;;;0.60;;
11082;SDS011;5595;50.186;8.468;2023-11-21T09:25:25;1.63;;;0.90;;
11082;SDS011;5595;50.186;8.468;2023-11-21T09:27:53;2.37;;;1.00;;
11082;SDS011;5595;50.186;8.468;2023-11-21T09:30:21;2.63;;;0.90;;
11082;SDS011;5595;50.186;8.468;2023-11-21T09:32:49;2.73;;;1.50;;
11082;SDS011;5595;50.186;8.468;2023-11-21T09:35:16;1.70;;;1.00;;
11082;SDS011;5595;50.186;8.468;2023-11-21T09:37:45;2.73;;;1.10;;
11082;SDS011;5595;50.186;8.468;2023-11-21T09:40:12;2.63;;;0.63;;
11082;SDS011;5595;50.186;8.468;2023-11-21T09:42:43;1.87;;;0.93;;
11082;SDS011;5595;50.186;8.468;2023-11-21T09:45:17;2.63;;;1.30;;
11082;SDS011;5595;50.186;8.468;2023-11-21T09:47:50;2.00;;;1.03;;
11082;SDS011;5595;50.186;8.468;2023-11-21T09:50:20;4.23;;;0.80;;
11082;SDS011;5595;50.186;8.468;2023-11-21T09:52:52;2.83;;;0.93;;
11082;SDS011;5595;50.186;8.468;2023-11-21T09:55:24;4.00;;;0.93;;
11082;SDS011;5595;50.186;8.468;2023-11-21T09:57:55;2.20;;;1.00;;
11082;SDS011;5595;50.186;8.468;2023-11-21T10:00:23;2.57;;;1.07;;
11082;SDS011;5595;50.186;8.468;2023-11-21T10:02:50;1.90;;;1.23;;
11082;SDS011;5595;50.186;8.468;2023-11-21T10:05:19;2.00;;;1.23;;
11082;SDS011;5595;50.186;8.468;2023-11-21T10:07:47;1.53;;;1.20;;
11082;SDS011;5595;50.186;8.468;2023-11-21T10:10:18;1.00;;;0.57;;
11082;SDS011;5595;50.186;8.468;2023-11-21T10:12:48;2.80;;;0.70;;
11082;SDS011;5595;50.186;8.468;2023-11-21T10:15:18;0.80;;;0.77;;
11082;SDS011;5595;50.186;8.468;2023-11-21T10:17:48;1.20;;;0.80;;
11082;SDS011;5595;50.186;8.468;2023-11-21T10:20:18;1.33;;;0.90;;
11082;SDS011;5595;50.186;8.468;2023-11-21T10:22:53;0.60;;;0.60;;
11082;SDS011;5595;50.186;8.468;2023-11-21T10:25:21;1.57;;;0.50;;
11082;SDS011;5595;50.186;8.468;2023-11-21T10:27:48;1.30;;;0.73;;
11082;SDS011;5595;50.186;8.468;2023-11-21T10:30:17;1.50;;;0.73;;
11082;SDS011;5595;50.186;8.468;2023-11-21T10:32:44;0.60;;;0.60;;
11082;SDS011;5595;50.186;8.468;2023-11-21T10:35:11;1.17;;;0.97;;
11082;SDS011;5595;50.186;8.468;2023-11-21T10:37:38;0.80;;;0.65;;
11082;SDS011;5595;50.186;8.468;2023-11-21T10:40:07;0.40;;;0.30;;
11082;SDS011;5595;50.186;8.468;2023-11-21T10:42:37;0.45;;;0.43;;
11082;SDS011;5595;50.186;8.468;2023-11-21T10:45:04;1.27;;;0.60;;
11082;SDS011;5595;50.186;8.468;2023-11-21T10:47:36;0.73;;;0.60;;
11082;SDS011;5595;50.186;8.468;2023-11-21T10:50:05;2.55;;;0.98;;
11082;SDS011;5595;50.186;8.468;2023-11-21T10:52:35;3.63;;;0.63;;
11082;SDS011;5595;50.186;8.468;2023-11-21T10:55:07;0.57;;;0.50;;
11082;SDS011;5595;50.186;8.468;2023-11-21T10:57:43;1.52;;;0.70;;
11082;SDS011;5595;50.186;8.468;2023-11-21T11:00:12;1.90;;;0.68;;
11082;SDS011;5595;50.186;8.468;2023-11-21T11:02:40;1.30;;;0.60;;
11082;SDS011;5595;50.186;8.468;2023-11-21T11:05:07;0.60;;;0.50;;
11082;SDS011;5595;50.186;8.468;2023-11-21T11:07:36;0.68;;;0.40;;
11082;SDS011;5595;50.186;8.468;2023-11-21T11:10:10;1.80;;;0.63;;
11082;SDS011;5595;50.186;8.468;2023-11-21T11:12:39;1.35;;;0.52;;
11082;SDS011;5595;50.186;8.468;2023-11-21T11:15:07;1.90;;;0.40;;
11082;SDS011;5595;50.186;8.468;2023-11-21T11:17:35;0.50;;;0.40;;
11082;SDS011;5595;50.186;8.468;2023-11-21T11:20:05;1.03;;;0.67;;
11082;SDS011;5595;50.186;8.468;2023-11-21T11:22:36;2.45;;;1.10;;
11082;SDS011;5595;50.186;8.468;2023-11-21T11:25:14;0.60;;;0.40;;
11082;SDS011;5595;50.186;8.468;2023-11-21T11:27:52;2.35;;;0.75;;
11082;SDS011;5595;50.186;8.468;2023-11-21T11:30:27;1.60;;;0.60;;
11082;SDS011;5595;50.186;8.468;2023-11-21T11:33:08;2.42;;;1.00;;
11082;SDS011;5595;50.186;8.468;2023-11-21T11:35:42;1.42;;;0.52;;
11082;SDS011;5595;50.186;8.468;2023-11-21T11:38:19;1.90;;;0.45;;
11082;SDS011;5595;50.186;8.468;2023-11-21T11:40:52;1.45;;;0.65;;
11082;SDS011;5595;50.186;8.468;2023-11-21T11:43:24;1.73;;;0.40;;
11082;SDS011;5595;50.186;8.468;2023-11-21T11:45:53;2.28;;;0.50;;
11082;SDS011;5595;50.186;8.468;2023-11-21T11:48:22;1.02;;;0.63;;
11082;SDS011;5595;50.186;8.468;2023-11-21T11:51:02;0.95;;;0.70;;
11082;SDS011;5595;50.186;8.468;2023-11-21T11:53:32;2.10;;;0.60;;
11082;SDS011;5595;50.186;8.468;2023-11-21T11:58:53;5.80;;;0.90;;
11082;SDS011;5595;50.186;8.468;2023-11-21T12:01:21;3.10;;;0.93;;
11082;SDS011;5595;50.186;8.468;2023-11-21T12:06:55;4.25;;;0.70;;
11082;SDS011;5595;50.186;8.468;2023-11-21T12:09:25;1.03;;;0.50;;
11082;SDS011;5595;50.186;8.468;2023-11-21T12:11:54;0.77;;;0.73;;
11082;SDS011;5595;50.186;8.468;2023-11-21T12:14:22;0.30;;;0.30;;
11082;SDS011;5595;50.186;8.468;2023-11-21T12:16:49;0.70;;;0.70;;
11082;SDS011;5595;50.186;8.468;2023-11-21T12:19:16;1.73;;;0.75;;
11082;SDS011;5595;50.186;8.468;2023-11-21T12:21:43;1.15;;;0.60;;
11082;SDS011;5595;50.186;8.468;2023-11-21T12:24:10;2.13;;;0.80;;
11082;SDS011;5595;50.186;8.468;2023-11-21T12:26:38;1.98;;;0.80;;
11082;SDS011;5595;50.186;8.468;2023-11-21T12:29:07;1.25;;;0.80;;
11082;SDS011;5595;50.186;8.468;2023-11-21T12:31:33;1.43;;;0.57;;
11082;SDS011;5595;50.186;8.468;2023-11-21T12:34:01;1.27;;;0.50;;
11082;SDS011;5595;50.186;8.468;2023-11-21T12:36:27;1.20;;;0.60;;
11082;SDS011;5595;50.186;8.468;2023-11-21T12:38:55;0.25;;;0.15;;
11082;SDS011;5595;50.186;8.468;2023-11-21T12:41:37;0.60;;;0.60;;
11082;SDS011;5595;50.186;8.468;2023-11-21T12:44:08;0.68;;;0.40;;
11082;SDS011;5595;50.186;8.468;2023-11-21T12:46:40;4.45;;;0.77;;
11082;SDS011;5595;50.186;8.468;2023-11-21T12:49:10;1.48;;;0.95;;
11082;SDS011;5595;50.186;8.468;2023-11-21T12:51:42;0.98;;;0.77;;
11082;SDS011;5595;50.186;8.468;2023-11-21T12:54:09;2.05;;;0.70;;
11082;SDS011;5595;50.186;8.468;2023-11-21T12:56:39;0.88;;;0.60;;
11082;SDS011;5595;50.186;8.468;2023-11-21T12:59:06;1.20;;;0.95;;
11082;SDS011;5595;50.186;8.468;2023-11-21T13:01:36;0.80;;;0.80;;
11082;SDS011;5595;50.186;8.468;2023-11-21T13:04:04;1.17;;;0.68;;
11082;SDS011;5595;50.186;8.468;2023-11-21T13:06:36;2.47;;;0.88;;
11082;SDS011;5595;50.186;8.468;2023-11-21T13:09:06;0.77;;;0.70;;
11082;SDS011;5595;50.186;8.468;2023-11-21T13:11:35;2.67;;;0.60;;
11082;SDS011;5595;50.186;8.468;2023-11-21T13:14:07;1.52;;;0.98;;
11082;SDS011;5595;50.186;8.468;2023-11-21T13:16:36;0.95;;;0.70;;
11082;SDS011;5595;50.186;8.468;2023-11-21T13:19:04;2.97;;;0.82;;
11082;SDS011;5595;50.186;8.468;2023-11-21T13:21:31;3.33;;;0.88;;
11082;SDS011;5595;50.186;8.468;2023-11-21T13:23:58;1.20;;;0.80;;
11082;SDS011;5595;50.186;8.468;2023-11-21T13:26:25;0.77;;;0.70;;
11082;SDS011;5595;50.186;8.468;2023-11-21T13:28:52;1.30;;;1.10;;
11082;SDS011;5595;50.186;8.468;2023-11-21T13:31:20;1.63;;;0.65;;
11082;SDS011;5595;50.186;8.468;2023-11-21T13:33:51;2.67;;;0.73;;
11082;SDS011;5595;50.186;8.468;2023-11-21T13:36:21;0.82;;;0.70;;
11082;SDS011;5595;50.186;8.468;2023-11-21T13:38:49;1.52;;;0.70;;
11082;SDS011;5595;50.186;8.468;2023-11-21T13:41:17;1.95;;;0.65;;
11082;SDS011;5595;50.186;8.468;2023-11-21T13:43:45;4.53;;;1.00;;
11082;SDS011;5595;50.186;8.468;2023-11-21T13:46:17;3.85;;;0.75;;
11082;SDS011;5595;50.186;8.468;2023-11-21T13:48:48;2.38;;;1.08;;
11082;SDS011;5595;50.186;8.468;2023-11-21T13:51:20;1.30;;;0.80;;
11082;SDS011;5595;50.186;8.468;2023-11-21T13:53:56;2.90;;;1.30;;
11082;SDS011;5595;50.186;8.468;2023-11-21T13:56:24;1.10;;;1.00;;
11082;SDS011;5595;50.186;8.468;2023-11-21T13:58:53;2.40;;;1.13;;
11082;SDS011;5595;50.186;8.468;2023-11-21T14:01:21;3.33;;;1.00;;
11082;SDS011;5595;50.186;8.468;2023-11-21T14:04:09;2.43;;;0.97;;
11082;SDS011;5595;50.186;8.468;2023-11-21T14:06:44;2.53;;;1.30;;
11082;SDS011;5595;50.186;8.468;2023-11-21T14:09:14;1.40;;;1.00;;
11082;SDS011;5595;50.186;8.468;2023-11-21T14:11:47;1.77;;;0.93;;
11082;SDS011;5595;50.186;8.468;2023-11-21T14:14:16;2.13;;;1.10;;
11082;SDS011;5595;50.186;8.468;2023-11-21T14:16:43;1.77;;;1.00;;
11082;SDS011;5595;50.186;8.468;2023-11-21T14:19:12;2.87;;;1.00;;
11082;SDS011;5595;50.186;8.468;2023-11-21T14:21:42;3.27;;;1.17;;
11082;SDS011;5595;50.186;8.468;2023-11-21T14:24:09;2.33;;;0.90;;
11082;SDS011;5595;50.186;8.468;2023-11-21T14:26:37;2.20;;;0.90;;
11082;SDS011;5595;50.186;8.468;2023-11-21T14:29:05;2.30;;;1.10;;
11082;SDS011;5595;50.186;8.468;2023-11-21T14:31:33;1.73;;;0.70;;
11082;SDS011;5595;50.186;8.468;2023-11-21T14:34:00;1.80;;;0.80;;
11082;SDS011;5595;50.186;8.468;2023-11-21T14:36:28;3.95;;;1.50;;
11082;SDS011;5595;50.186;8.468;2023-11-21T14:38:55;1.83;;;1.10;;
11082;SDS011;5595;50.186;8.468;2023-11-21T14:41:22;2.57;;;1.10;;
11082;SDS011;5595;50.186;8.468;2023-11-21T14:43:52;1.50;;;1.30;;
11082;SDS011;5595;50.186;8.468;2023-11-21T14:46:20;1.00;;;0.90;;
11082;SDS011;5595;50.186;8.468;2023-11-21T14:48:47;1.42;;;0.90;;
11082;SDS011;5595;50.186;8.468;2023-11-21T14:51:23;1.67;;;1.07;;
11082;SDS011;5595;50.186;8.468;2023-11-21T14:53:56;1.80;;;1.20;;
11082;SDS011;5595;50.186;8.468;2023-11-21T14:56:31;2.47;;;1.07;;
11082;SDS011;5595;50.186;8.468;2023-11-21T14:58:59;1.83;;;1.00;;
11082;SDS011;5595;50.186;8.468;2023-11-21T15:01:33;1.57;;;1.00;;
11082;SDS011;5595;50.186;8.468;2023-11-21T15:04:09;1.93;;;0.93;;
11082;SDS011;5595;50.186;8.468;2023-11-21T15:06:47;2.87;;;1.20;;
11082;SDS011;5595;50.186;8.468;2023-11-21T15:09:14;1.20;;;0.90;;
11082;SDS011;5595;50.186;8.468;2023-11-21T15:12:01;1.33;;;0.73;;
11082;SDS011;5595;50.186;8.468;2023-11-21T15:14:38;2.37;;;1.10;;
11082;SDS011;5595;50.186;8.468;2023-11-21T15:17:06;3.07;;;1.30;;
11082;SDS011;5595;50.186;8.468;2023-11-21T15:19:33;2.27;;;1.00;;
11082;SDS011;5595;50.186;8.468;2023-11-21T15:22:00;1.80;;;1.10;;
11082;SDS011;5595;50.186;8.468;2023-11-21T15:24:29;1.33;;;1.00;;
11082;SDS011;5595;50.186;8.468;2023-11-21T15:26:56;1.67;;;0.90;;
11082;SDS011;5595;50.186;8.468;2023-11-21T15:29:23;2.60;;;1.03;;
11082;SDS011;5595;50.186;8.468;2023-11-21T15:31:50;1.27;;;1.17;;
11082;SDS011;5595;50.186;8.468;2023-11-21T15:34:21;2.97;;;0.70;;
11082;SDS011;5595;50.186;8.468;2023-11-21T15:36:48;1.80;;;0.97;;
11082;SDS011;5595;50.186;8.468;2023-11-21T15:39:18;1.47;;;0.87;;
11082;SDS011;5595;50.186;8.468;2023-11-21T15:41:48;1.63;;;1.20;;
11082;SDS011;5595;50.186;8.468;2023-11-21T15:44:16;1.50;;;1.07;;
11082;SDS011;5595;50.186;8.468;2023-11-21T15:46:43;1.30;;;1.10;;
11082;SDS011;5595;50.186;8.468;2023-11-21T15:49:11;3.70;;;1.13;;
11082;SDS011;5595;50.186;8.468;2023-11-21T15:51:43;1.10;;;0.93;;
11082;SDS011;5595;50.186;8.468;2023-11-21T15:54:11;3.77;;;1.60;;
11082;SDS011;5595;50.186;8.468;2023-11-21T15:56:39;6.73;;;1.53;;
11082;SDS011;5595;50.186;8.468;2023-11-21T15:59:07;2.13;;;1.57;;
11082;SDS011;5595;50.186;8.468;2023-11-21T16:01:35;1.30;;;1.20;;
11082;SDS011;5595;50.186;8.468;2023-11-21T16:04:06;2.07;;;1.20;;
11082;SDS011;5595;50.186;8.468;2023-11-21T16:06:33;2.60;;;1.30;;
11082;SDS011;5595;50.186;8.468;2023-11-21T16:09:07;1.27;;;1.10;;
11082;SDS011;5595;50.186;8.468;2023-11-21T16:11:43;2.60;;;1.20;;
11082;SDS011;5595;50.186;8.468;2023-11-21T16:14:11;1.23;;;1.13;;
11082;SDS011;5595;50.186;8.468;2023-11-21T16:16:38;4.10;;;1.53;;
11082;SDS011;5595;50.186;8.468;2023-11-21T16:19:05;3.23;;;1.60;;
11082;SDS011;5595;50.186;8.468;2023-11-21T16:21:32;3.67;;;1.40;;
11082;SDS011;5595;50.186;8.468;2023-11-21T16:23:59;2.30;;;1.20;;
11082;SDS011;5595;50.186;8.468;2023-11-21T16:26:26;1.57;;;1.43;;
11082;SDS011;5595;50.186;8.468;2023-11-21T16:28:53;1.43;;;1.23;;
11082;SDS011;5595;50.186;8.468;2023-11-21T16:31:24;4.13;;;1.40;;
11082;SDS011;5595;50.186;8.468;2023-11-21T16:33:51;2.67;;;1.53;;
11082;SDS011;5595;50.186;8.468;2023-11-21T16:36:18;3.57;;;1.80;;
11082;SDS011;5595;50.186;8.468;2023-11-21T16:38:45;2.23;;;1.77;;
11082;SDS011;5595;50.186;8.468;2023-11-21T16:41:12;2.37;;;1.57;;
11082;SDS011;5595;50.186;8.468;2023-11-21T16:43:42;2.93;;;1.87;;
11082;SDS011;5595;50.186;8.468;2023-11-21T16:46:09;4.17;;;2.10;;
11082;SDS011;5595;50.186;8.468;2023-11-21T16:48:39;3.73;;;1.87;;
11082;SDS011;5595;50.186;8.468;2023-11-21T16:51:05;5.70;;;2.33;;
11082;SDS011;5595;50.186;8.468;2023-11-21T16:53:35;7.07;;;3.50;;
11082;SDS011;5595;50.186;8.468;2023-11-21T16:56:04;2.90;;;1.43;;
11082;SDS011;5595;50.186;8.468;2023-11-21T16:58:32;3.57;;;1.83;;
11082;SDS011;5595;50.186;8.468;2023-11-21T17:01:02;4.00;;;1.60;;
11082;SDS011;5595;50.186;8.468;2023-11-21T17:03:33;2.40;;;1.67;;
11082;SDS011;5595;50.186;8.468;2023-11-21T17:06:02;2.43;;;1.40;;
11082;SDS011;5595;50.186;8.468;2023-11-21T17:08:31;1.37;;;1.10;;
11082;SDS011;5595;50.186;8.468;2023-11-21T17:10:58;3.13;;;1.70;;
11082;SDS011;5595;50.186;8.468;2023-11-21T17:13:25;0.90;;;0.30;;
11082;SDS011;5595;50.186;8.468;2023-11-21T17:15:53;3.97;;;2.33;;
11082;SDS011;5595;50.186;8.468;2023-11-21T17:18:20;1.30;;;0.77;;
11082;SDS011;5595;50.186;8.468;2023-11-21T17:20:47;0.40;;;0.40;;
11082;SDS011;5595;50.186;8.468;2023-11-21T17:23:15;2.17;;;1.33;;
11082;SDS011;5595;50.186;8.468;2023-11-21T17:25:42;2.40;;;1.50;;
11082;SDS011;5595;50.186;8.468;2023-11-21T17:28:09;4.57;;;2.40;;
11082;SDS011;5595;50.186;8.468;2023-11-21T17:30:36;4.27;;;1.77;;
11082;SDS011;5595;50.186;8.468;2023-11-21T17:33:03;2.70;;;1.37;;
11082;SDS011;5595;50.186;8.468;2023-11-21T17:35:31;2.10;;;1.50;;
11082;SDS011;5595;50.186;8.468;2023-11-21T17:37:58;2.13;;;1.30;;
11082;SDS011;5595;50.186;8.468;2023-11-21T17:40:27;2.37;;;1.60;;
11082;SDS011;5595;50.186;8.468;2023-11-21T17:42:54;2.33;;;1.30;;
11082;SDS011;5595;50.186;8.468;2023-11-21T17:45:21;1.30;;;1.13;;
11082;SDS011;5595;50.186;8.468;2023-11-21T17:47:50;1.23;;;1.00;;
11082;SDS011;5595;50.186;8.468;2023-11-21T17:50:17;1.00;;;0.63;;
11082;SDS011;5595;50.186;8.468;2023-11-21T17:52:43;1.57;;;1.30;;
11082;SDS011;5595;50.186;8.468;2023-11-21T17:55:12;1.50;;;1.30;;
11082;SDS011;5595;50.186;8.468;2023-11-21T17:57:40;1.87;;;1.50;;
11082;SDS011;5595;50.186;8.468;2023-11-21T18:00:08;1.17;;;1.07;;
11082;SDS011;5595;50.186;8.468;2023-11-21T18:02:38;1.43;;;1.23;;
11082;SDS011;5595;50.186;8.468;2023-11-21T18:05:08;3.43;;;2.20;;
11082;SDS011;5595;50.186;8.468;2023-11-21T18:07:37;1.53;;;1.37;;
11082;SDS011;5595;50.186;8.468;2023-11-21T18:10:04;1.43;;;1.30;;
11082;SDS011;5595;50.186;8.468;2023-11-21T18:12:32;1.20;;;0.73;;
11082;SDS011;5595;50.186;8.468;2023-11-21T18:15:00;1.23;;;1.10;;
11082;SDS011;5595;50.186;8.468;2023-11-21T18:17:27;1.40;;;0.87;;
11082;SDS011;5595;50.186;8.468;2023-11-21T18:19:54;0.73;;;0.50;;
11082;SDS011;5595;50.186;8.468;2023-11-21T18:22:21;0.77;;;0.77;;
11082;SDS011;5595;50.186;8.468;2023-11-21T18:24:50;1.17;;;0.97;;
11082;SDS011;5595;50.186;8.468;2023-11-21T18:27:18;1.13;;;1.03;;
11082;SDS011;5595;50.186;8.468;2023-11-21T18:29:52;1.40;;;0.87;;
11082;SDS011;5595;50.186;8.468;2023-11-21T18:32:21;1.20;;;1.10;;
11082;SDS011;5595;50.186;8.468;2023-11-21T18:34:48;2.00;;;1.60;;
11082;SDS011;5595;50.186;8.468;2023-11-21T18:37:15;2.00;;;1.70;;
11082;SDS011;5595;50.186;8.468;2023-11-21T18:39:43;1.50;;;1.40;;
11082;SDS011;5595;50.186;8.468;2023-11-21T18:42:10;3.27;;;1.10;;
11082;SDS011;5595;50.186;8.468;2023-11-21T18:44:40;0.97;;;0.83;;
11082;SDS011;5595;50.186;8.468;2023-11-21T18:47:09;1.23;;;1.13;;
11082;SDS011;5595;50.186;8.468;2023-11-21T18:49:38;1.53;;;1.10;;
11082;SDS011;5595;50.186;8.468;2023-11-21T18:52:05;2.30;;;1.00;;
11082;SDS011;5595;50.186;8.468;2023-11-21T18:54:33;1.63;;;1.50;;
11082;SDS011;5595;50.186;8.468;2023-11-21T18:57:00;2.10;;;1.20;;
11082;SDS011;5595;50.186;8.468;2023-11-21T18:59:27;1.33;;;1.17;;
11082;SDS011;5595;50.186;8.468;2023-11-21T19:01:54;0.67;;;0.53;;
11082;SDS011;5595;50.186;8.468;2023-11-21T19:04:21;1.63;;;1.53;;
11082;SDS011;5595;50.186;8.468;2023-11-21T19:06:50;2.47;;;1.93;;
11082;SDS011;5595;50.186;8.468;2023-11-21T19:09:19;2.37;;;1.17;;
11082;SDS011;5595;50.186;8.468;2023-11-21T19:11:46;1.20;;;1.00;;
11082;SDS011;5595;50.186;8.468;2023-11-21T19:14:13;1.73;;;0.97;;
11082;SDS011;5595;50.186;8.468;2023-11-21T19:16:40;1.80;;;1.33;;
11082;SDS011;5595;50.186;8.468;2023-11-21T19:19:07;3.97;;;1.17;;
11082;SDS011;5595;50.186;8.468;2023-11-21T19:21:34;4.70;;;2.77;;
11082;SDS011;5595;50.186;8.468;2023-11-21T19:24:02;2.13;;;1.43;;
11082;SDS011;5595;50.186;8.468;2023-11-21T19:26:29;2.67;;;1.33;;
11082;SDS011;5595;50.186;8.468;2023-11-21T19:28:57;1.80;;;1.17;;
11082;SDS011;5595;50.186;8.468;2023-11-21T19:31:24;2.03;;;1.33;;